首页
METAR-TAF:

METAR-TAF

机场 :

Churchill, 曼尼托巴, 加拿大

纬度: 58-44N, 经度: 094-04W, 海拔: 28米

当前天气观测

该预报发布于43分钟前的23:00 UTC
风速14节,风向南转南东
温度 1°C
湿度 80%
气压 1011 hPa
能見度: 24.1公里
少量云层高于15000英尺
少量云层高于25000英尺

METAR: CYYQ 172300Z 15014KT 15SM FEW150 FEW250 01/M02 A2986 RMK AC1CI1 AC TR CI TR SLP117

时间: 18:43 (23:43 UTC)

预报

该预报发布于6小时和5分钟前的17:38 UTC
预报有效从17日的 18点(UTC)到 18日的 18点(UTC)
风速12节,风向,有时为22节阵风
能見度: 10公里
散云层高于1500英尺
多云层高于10000英尺
多云层高于25000英尺
短暂存在
从 17日的 18点(UTC)到 17日的 24点(UTC)
多云层高于1500英尺
多云层高于8000英尺
阴天层高于25000英尺
成为
从 17日的 19点(UTC)到 17日的 21点(UTC)
风速18节,风向,有时为28节阵风
从 18日的 0500点(UTC)
风速18节,风向南转南东,有时为28节阵风
能見度: 10公里
多云层高于1200英尺
阴天层高于4000英尺
小雨, 雪
短暂存在
从 18日的 05点(UTC)到 18日的 07点(UTC)
能見度: 3.2公里
阴天层高于800英尺
小雪
从 18日的 0700点(UTC)
风速15节,风向南转南东,有时为25节阵风
能見度: 3.2公里
阴天层高于800英尺
小雪
从 18日的 1200点(UTC)
风速18节,风向南转南东,有时为28节阵风
能見度: 6.4公里
阴天层高于1200英尺
小雨, 轻雾
从 18日的 1500点(UTC)
风速20节,风向南转南东,有时为30节阵风
能見度: 10公里
阴天层高于1500英尺

TAF: CYYQ 171738Z 1718/1818 17012G22KT P6SM SCT015 BKN100 BKN250 TEMPO 1718/1724 BKN015 BKN080 OVC250 BECMG 1719/1721 17018G28KT FM180500 16018G28KT P6SM -RASN BKN012 OVC040 TEMPO 1805/1807 2SM -SN OVC008 FM180700 16015G25KT 2SM -SN OVC008 FM181200 16018G28KT 4SM -RA BR OVC012 FM181500 16020G30KT P6SM OVC015 RMK NXT FCST BY 180000Z

超过4000个机场的气象观测和天气预报(METAR&TAF报告)。

可查询的气象台以黄色和红色小点在地图上表示。

将鼠标移到小点上方,可查看气象台名称。

然后点击查看天气观测和预报。

如需切换地图:点击带黑十字的绿色按钮放大地图;点击带横线的绿色按钮缩小地图;或者点击绿色箭头查看邻近地区的地图。


METAR-TAF: